Time;durP1;ratioP1;P1;durP2;ratioP2;P2;SDS_P1;SDS_P2;PMS_P1;PMS_P2;Temp;Humidity;BMP_temperature;BMP_pressure;BME280_temperature;BME280_humidity;BME280_pressure;Samples;Min_cycle;Max_cycle;Signal;HPM_P1;HPM_P2
2022/03/16 00:00:36;;;;;;;27.90;25.27;;;6.10;99.90;;;;;;4940770;29;20505;-79
2022/03/16 00:03:06;;;;;;;29.17;26.27;;;6.10;99.90;;;;;;4939588;29;20446;-79
2022/03/16 00:05:34;;;;;;;28.13;25.30;;;6.10;99.90;;;;;;4938741;29;20555;-79
2022/03/16 00:08:02;;;;;;;28.67;25.60;;;6.10;99.90;;;;;;4957658;29;20473;-79
2022/03/16 00:10:30;;;;;;;28.07;25.13;;;6.10;99.90;;;;;;4957646;28;20453;-79
2022/03/16 00:12:58;;;;;;;27.20;24.40;;;6.10;99.90;;;;;;4957693;28;20458;-79
2022/03/16 00:15:28;;;;;;;27.67;24.60;;;6.10;99.90;;;;;;4957300;28;20521;-79
2022/03/16 00:17:56;;;;;;;29.50;25.37;;;6.10;99.90;;;;;;4958235;28;20440;-79
2022/03/16 00:20:24;;;;;;;30.57;25.50;;;6.10;99.90;;;;;;4959005;28;20461;-79
2022/03/16 00:22:52;;;;;;;27.10;24.40;;;6.10;99.90;;;;;;4944572;28;20493;-79
2022/03/16 00:25:20;;;;;;;29.80;26.57;;;6.10;99.90;;;;;;4951906;28;20496;-79
2022/03/16 00:27:49;;;;;;;28.07;24.23;;;6.10;99.90;;;;;;4958687;29;20466;-79
2022/03/16 00:30:17;;;;;;;25.90;23.20;;;6.10;99.90;;;;;;4957601;29;20959;-79
2022/03/16 00:32:46;;;;;;;31.00;28.00;;;6.10;99.90;;;;;;4957030;28;20448;-79
2022/03/16 00:35:14;;;;;;;25.17;22.63;;;6.10;99.90;;;;;;4956930;28;20586;-78
2022/03/16 00:37:42;;;;;;;28.27;24.80;;;6.10;99.90;;;;;;4957935;28;20478;-79
2022/03/16 00:40:11;;;;;;;26.30;23.40;;;6.10;99.90;;;;;;4957664;29;20450;-79
2022/03/16 00:42:39;;;;;;;27.03;24.43;;;6.00;99.90;;;;;;4957370;29;20456;-79
2022/03/16 00:45:09;;;;;;;24.80;22.30;;;6.00;99.90;;;;;;4953730;28;20471;-79
2022/03/16 00:47:37;;;;;;;28.90;25.90;;;6.00;99.90;;;;;;4941025;28;20460;-79
2022/03/16 00:50:08;;;;;;;25.73;23.03;;;6.00;99.90;;;;;;4937937;29;20451;-79
2022/03/16 00:52:36;;;;;;;25.03;22.37;;;6.00;99.90;;;;;;4947969;29;20494;-79
2022/03/16 00:55:05;;;;;;;26.93;24.20;;;5.90;99.90;;;;;;4956724;29;20470;-79
2022/03/16 00:57:33;;;;;;;26.40;23.90;;;5.90;99.90;;;;;;4956753;29;20505;-79
2022/03/16 01:00:02;;;;;;;25.73;23.23;;;5.80;99.90;;;;;;4956579;28;20450;-79
2022/03/16 01:02:30;;;;;;;26.50;23.80;;;5.80;99.90;;;;;;4956541;28;20545;-79
2022/03/16 01:04:59;;;;;;;27.37;24.70;;;5.80;99.90;;;;;;4957639;28;20490;-79
2022/03/16 01:07:30;;;;;;;25.83;23.20;;;5.70;99.90;;;;;;4951576;28;20534;-79
2022/03/16 01:09:58;;;;;;;26.30;23.60;;;5.70;99.90;;;;;;4940603;29;20455;-79
2022/03/16 01:12:26;;;;;;;28.00;25.20;;;5.70;99.90;;;;;;4941844;29;20442;-79
2022/03/16 01:14:54;;;;;;;26.77;24.07;;;5.60;99.90;;;;;;4940675;29;20475;-79
2022/03/16 01:17:23;;;;;;;26.20;23.57;;;5.60;99.90;;;;;;4939784;29;21009;-79
2022/03/16 01:19:51;;;;;;;26.80;24.00;;;5.60;99.90;;;;;;4940262;28;20448;-79
2022/03/16 01:22:19;;;;;;;27.93;22.97;;;5.50;99.90;;;;;;4954794;29;20568;-79
2022/03/16 01:24:50;;;;;;;25.87;23.10;;;5.50;99.90;;;;;;4959471;28;20465;-79
2022/03/16 01:27:20;;;;;;;26.27;23.57;;;5.50;99.90;;;;;;4959174;28;20510;-79
2022/03/16 01:29:48;;;;;;;27.07;23.47;;;5.40;99.90;;;;;;4959007;28;20446;-79
2022/03/16 01:32:17;;;;;;;24.77;22.30;;;5.40;99.90;;;;;;4958779;28;20450;-79
2022/03/16 01:34:45;;;;;;;26.70;24.03;;;5.40;99.90;;;;;;4955506;28;20916;-79
2022/03/16 01:37:14;;;;;;;25.13;22.40;;;5.40;99.90;;;;;;4939903;29;20471;-79
2022/03/16 01:39:43;;;;;;;26.13;23.20;;;5.40;99.90;;;;;;4939605;29;20818;-79
2022/03/16 01:42:13;;;;;;;25.43;22.80;;;5.30;99.90;;;;;;4939942;28;20515;-79
2022/03/16 01:44:44;;;;;;;27.87;23.73;;;5.20;99.90;;;;;;4941296;29;20482;-78
2022/03/16 01:47:13;;;;;;;29.53;26.47;;;5.20;99.90;;;;;;4951562;28;20446;-79
2022/03/16 01:49:42;;;;;;;32.00;27.60;;;5.20;99.90;;;;;;4958202;28;20454;-79
2022/03/16 01:52:11;;;;;;;29.20;26.10;;;5.10;99.90;;;;;;4955061;28;20511;-79
2022/03/16 01:54:41;;;;;;;30.33;27.13;;;5.10;99.90;;;;;;4958290;28;20470;-79
2022/03/16 01:57:11;;;;;;;29.63;26.43;;;5.10;99.90;;;;;;4944189;28;20504;-79
2022/03/16 01:59:41;;;;;;;30.80;27.70;;;5.00;99.90;;;;;;4958712;28;20454;-79
2022/03/16 02:02:11;;;;;;;29.40;26.30;;;5.00;99.90;;;;;;4959328;29;20855;-79
2022/03/16 02:04:40;;;;;;;28.70;25.67;;;5.00;99.90;;;;;;4958516;28;20477;-79
2022/03/16 02:07:08;;;;;;;28.83;25.93;;;4.90;99.90;;;;;;4955472;28;20561;-79
2022/03/16 02:09:37;;;;;;;28.73;25.63;;;4.90;99.90;;;;;;4958277;28;20502;-79
2022/03/16 02:12:06;;;;;;;30.53;26.40;;;4.90;99.90;;;;;;4958055;28;21056;-78
2022/03/16 02:14:35;;;;;;;29.47;26.47;;;4.80;99.90;;;;;;4956295;28;20480;-78
2022/03/16 02:17:06;;;;;;;26.60;23.80;;;4.80;99.90;;;;;;4939597;28;20471;-79
2022/03/16 02:19:34;;;;;;;29.20;26.20;;;4.80;99.90;;;;;;4942915;28;20940;-79
2022/03/16 02:22:05;;;;;;;26.43;23.53;;;4.70;99.90;;;;;;4946634;28;20487;-78
2022/03/16 02:24:34;;;;;;;28.27;25.30;;;4.70;99.90;;;;;;4939849;29;20487;-78
2022/03/16 02:27:03;;;;;;;25.20;22.47;;;4.70;99.90;;;;;;4938833;28;20456;-78
2022/03/16 02:29:32;;;;;;;25.97;23.30;;;4.60;99.90;;;;;;4939503;29;20513;-79
2022/03/16 02:32:00;;;;;;;26.63;23.73;;;4.60;99.90;;;;;;4938148;29;20455;-79
2022/03/16 02:34:28;;;;;;;25.60;23.00;;;4.60;99.90;;;;;;4939701;29;20562;-79
2022/03/16 02:36:57;;;;;;;26.00;23.40;;;4.50;99.90;;;;;;4940632;29;20467;-78
2022/03/16 02:39:25;;;;;;;27.20;24.40;;;4.50;99.90;;;;;;4938528;28;20519;-78
2022/03/16 02:41:54;;;;;;;24.57;22.07;;;4.50;99.90;;;;;;4938186;28;20483;-78
2022/03/16 02:44:22;;;;;;;27.90;24.17;;;4.40;99.90;;;;;;4939349;29;20466;-78
2022/03/16 02:46:51;;;;;;;24.67;22.17;;;4.40;99.90;;;;;;4957444;28;20575;-78
2022/03/16 02:49:19;;;;;;;26.23;23.10;;;4.40;99.90;;;;;;4957419;28;20459;-78
2022/03/16 02:51:49;;;;;;;28.43;22.97;;;4.30;99.90;;;;;;4958132;28;20855;-78
2022/03/16 02:54:17;;;;;;;21.47;19.00;;;4.30;99.90;;;;;;4957719;28;20877;-78
2022/03/16 02:56:47;;;;;;;26.70;23.90;;;4.30;99.90;;;;;;4956751;28;20450;-78
2022/03/16 02:59:17;;;;;;;25.50;22.80;;;4.20;99.90;;;;;;4957841;28;20897;-78
2022/03/16 03:01:45;;;;;;;23.53;20.97;;;4.20;99.90;;;;;;4955197;28;20477;-78
2022/03/16 03:04:14;;;;;;;23.90;20.83;;;4.20;99.90;;;;;;4957021;28;20537;-78
2022/03/16 03:06:42;;;;;;;26.67;21.07;;;4.20;99.90;;;;;;4956529;28;20509;-78
2022/03/16 03:09:10;;;;;;;24.17;21.57;;;4.10;99.90;;;;;;4956727;28;20859;-78
2022/03/16 03:11:40;;;;;;;23.47;21.07;;;4.10;99.90;;;;;;4956631;28;21040;-78
2022/03/16 03:14:08;;;;;;;25.80;22.57;;;4.10;99.90;;;;;;4956258;28;20458;-78
2022/03/16 03:16:37;;;;;;;23.70;21.10;;;4.10;99.90;;;;;;4956274;28;20457;-78
2022/03/16 03:19:06;;;;;;;24.97;20.63;;;4.10;99.90;;;;;;4949547;28;20483;-78
2022/03/16 03:21:34;;;;;;;23.40;20.90;;;4.10;99.90;;;;;;4938081;29;20451;-78
2022/03/16 03:24:02;;;;;;;24.60;21.90;;;4.10;99.90;;;;;;4938930;28;20470;-78
2022/03/16 03:26:35;;;;;;;24.50;21.90;;;4.00;99.90;;;;;;4938679;29;20483;-78
2022/03/16 03:29:04;;;;;;;26.37;22.80;;;4.00;99.90;;;;;;4937967;29;20518;-78
2022/03/16 03:31:32;;;;;;;25.97;22.30;;;4.00;99.90;;;;;;4937168;29;20465;-78
2022/03/16 03:34:02;;;;;;;30.40;23.77;;;4.00;99.90;;;;;;4941366;28;20465;-78
2022/03/16 03:36:30;;;;;;;25.33;21.00;;;4.00;99.90;;;;;;4937055;28;20487;-78
2022/03/16 03:38:58;;;;;;;24.63;22.00;;;3.90;99.90;;;;;;4955444;28;20488;-79
2022/03/16 03:41:26;;;;;;;25.43;22.50;;;3.90;99.90;;;;;;4957548;28;20442;-78
2022/03/16 03:43:55;;;;;;;30.40;22.87;;;3.90;99.90;;;;;;4957545;28;20451;-78
2022/03/16 03:46:23;;;;;;;25.27;22.20;;;3.90;99.90;;;;;;4955727;28;20479;-78
2022/03/16 03:48:51;;;;;;;26.80;21.70;;;3.90;99.90;;;;;;4951073;29;20459;-78
2022/03/16 03:51:21;;;;;;;23.33;20.53;;;3.90;99.90;;;;;;4938971;29;20542;-78
2022/03/16 03:53:49;;;;;;;23.20;20.70;;;3.80;99.90;;;;;;4936885;28;20457;-78
2022/03/16 03:56:18;;;;;;;27.70;22.37;;;3.80;99.90;;;;;;4937848;29;21018;-78
2022/03/16 03:58:46;;;;;;;26.80;22.50;;;3.80;99.90;;;;;;4937039;29;20479;-78
2022/03/16 04:01:15;;;;;;;24.10;21.50;;;3.80;99.90;;;;;;4937101;29;20465;-78
2022/03/16 04:03:44;;;;;;;25.10;20.83;;;3.80;99.90;;;;;;4944876;28;20463;-78
2022/03/16 04:06:13;;;;;;;22.30;19.83;;;3.70;99.90;;;;;;4936407;29;20493;-78
2022/03/16 04:08:43;;;;;;;26.47;22.33;;;3.70;99.90;;;;;;4936519;29;20911;-78
2022/03/16 04:11:13;;;;;;;23.07;20.50;;;3.70;99.90;;;;;;4937728;29;20778;-78
2022/03/16 04:13:41;;;;;;;22.03;19.70;;;3.70;99.90;;;;;;4945921;29;20458;-78
2022/03/16 04:16:09;;;;;;;28.90;21.40;;;3.60;99.90;;;;;;4955643;28;20517;-78
2022/03/16 04:18:37;;;;;;;26.33;21.73;;;3.60;99.90;;;;;;4955670;29;20479;-78
2022/03/16 04:21:05;;;;;;;29.40;22.87;;;3.60;99.90;;;;;;4955497;29;20455;-78
2022/03/16 04:23:34;;;;;;;23.87;20.03;;;3.60;99.90;;;;;;4957339;28;20446;-78
2022/03/16 04:26:03;;;;;;;22.53;20.13;;;3.60;99.90;;;;;;4955550;28;21007;-78
2022/03/16 04:28:31;;;;;;;22.43;19.20;;;3.50;99.90;;;;;;4955441;28;20453;-78
2022/03/16 04:31:01;;;;;;;25.87;22.60;;;3.50;99.90;;;;;;4955715;28;20464;-78
2022/03/16 04:33:30;;;;;;;25.70;22.97;;;3.50;99.90;;;;;;4955682;28;20466;-78
2022/03/16 04:35:59;;;;;;;24.87;22.37;;;3.50;99.90;;;;;;4955867;28;20662;-78
2022/03/16 04:38:27;;;;;;;26.27;20.60;;;3.40;99.90;;;;;;4956578;29;20473;-78
2022/03/16 04:40:55;;;;;;;23.90;20.70;;;3.40;99.90;;;;;;4956784;28;20584;-78
2022/03/16 04:43:25;;;;;;;24.50;20.10;;;3.40;99.90;;;;;;4959115;28;20465;-78
2022/03/16 04:45:53;;;;;;;25.80;21.00;;;3.40;99.90;;;;;;4960225;28;20468;-78
2022/03/16 04:48:21;;;;;;;26.83;21.80;;;3.40;99.90;;;;;;4958661;29;20446;-78
2022/03/16 04:50:49;;;;;;;24.80;22.03;;;3.30;99.90;;;;;;4958407;29;20549;-78
2022/03/16 04:53:17;;;;;;;25.30;21.30;;;3.40;99.90;;;;;;4943383;28;20469;-78
2022/03/16 04:55:45;;;;;;;27.23;22.10;;;3.30;99.90;;;;;;4939661;29;20468;-78
2022/03/16 04:58:14;;;;;;;26.23;21.00;;;3.30;99.90;;;;;;4939012;28;20479;-78
2022/03/16 05:00:43;;;;;;;27.83;22.90;;;3.30;99.90;;;;;;4940784;29;21024;-78
2022/03/16 05:03:15;;;;;;;27.90;22.00;;;3.30;99.90;;;;;;4939267;29;20440;-78
2022/03/16 05:05:43;;;;;;;25.67;22.87;;;3.30;99.90;;;;;;4939303;29;21072;-78
2022/03/16 05:08:12;;;;;;;26.53;23.60;;;3.30;99.90;;;;;;4940252;29;20530;-78
2022/03/16 05:10:40;;;;;;;28.90;22.60;;;3.30;99.90;;;;;;4939992;29;20440;-78
2022/03/16 05:13:08;;;;;;;29.73;24.07;;;3.30;99.90;;;;;;4938728;29;20459;-78
2022/03/16 05:15:36;;;;;;;27.23;22.00;;;3.20;99.90;;;;;;4938776;28;20498;-78
2022/03/16 05:18:06;;;;;;;27.77;22.57;;;3.30;99.90;;;;;;4938475;29;20455;-78
2022/03/16 05:20:34;;;;;;;31.13;22.83;;;3.30;99.90;;;;;;4940126;29;20541;-78
2022/03/16 05:23:02;;;;;;;28.27;23.27;;;3.30;99.90;;;;;;4938821;28;20979;-78
2022/03/16 05:25:31;;;;;;;25.50;22.37;;;3.30;99.90;;;;;;4938655;29;20563;-78
2022/03/16 05:27:59;;;;;;;26.53;23.10;;;3.20;99.90;;;;;;4939930;29;20441;-78
2022/03/16 05:30:27;;;;;;;25.33;21.07;;;3.20;99.90;;;;;;4938912;29;20469;-78
2022/03/16 05:32:57;;;;;;;26.17;22.03;;;3.20;99.90;;;;;;4938770;29;20451;-78
2022/03/16 05:35:27;;;;;;;27.57;23.20;;;3.30;99.90;;;;;;4938214;29;20478;-78
2022/03/16 05:37:55;;;;;;;25.47;21.10;;;3.20;99.90;;;;;;4938837;29;20460;-78
2022/03/16 05:40:24;;;;;;;26.70;22.30;;;3.20;99.90;;;;;;4938551;29;20491;-78
2022/03/16 05:42:52;;;;;;;27.93;23.60;;;3.20;99.90;;;;;;4938298;29;20451;-78
2022/03/16 05:45:23;;;;;;;29.37;22.50;;;3.20;99.90;;;;;;4938380;29;20475;-78
2022/03/16 05:47:51;;;;;;;27.20;22.80;;;3.20;99.90;;;;;;4939832;29;20443;-78
2022/03/16 05:50:19;;;;;;;25.97;22.37;;;3.20;99.90;;;;;;4939374;29;20467;-78
2022/03/16 05:52:49;;;;;;;26.63;23.00;;;3.20;99.90;;;;;;4937310;29;20447;-78
2022/03/16 05:55:17;;;;;;;25.30;22.20;;;3.20;99.90;;;;;;4937917;29;20980;-78
2022/03/16 05:57:45;;;;;;;24.63;20.50;;;3.20;99.90;;;;;;4937935;29;20474;-77
2022/03/16 06:00:15;;;;;;;29.40;23.67;;;3.20;99.90;;;;;;4937656;28;21028;-78
2022/03/16 06:02:44;;;;;;;31.80;23.83;;;3.20;99.90;;;;;;4938306;29;21048;-78
2022/03/16 06:05:13;;;;;;;34.50;25.50;;;3.30;99.90;;;;;;4939072;29;20522;-78
2022/03/16 06:07:42;;;;;;;24.90;22.20;;;3.30;99.90;;;;;;4939009;29;20439;-78
2022/03/16 06:10:15;;;;;;;28.53;23.30;;;3.30;99.90;;;;;;4938755;29;20455;-78
2022/03/16 06:12:51;;;;;;;29.50;24.80;;;3.30;99.90;;;;;;4937900;29;20453;-78
2022/03/16 06:15:19;;;;;;;25.60;22.80;;;3.30;99.90;;;;;;4937408;29;20542;-78
2022/03/16 06:17:48;;;;;;;33.20;24.43;;;3.30;99.90;;;;;;4937563;29;20455;-78
2022/03/16 06:20:16;;;;;;;30.60;24.30;;;3.30;99.90;;;;;;4937114;29;20486;-78
2022/03/16 06:22:44;;;;;;;30.33;24.70;;;3.40;99.90;;;;;;4936749;29;20483;-77
2022/03/16 06:25:14;;;;;;;34.03;25.97;;;3.40;99.90;;;;;;4938219;29;20465;-78
2022/03/16 06:27:42;;;;;;;34.50;25.00;;;3.40;99.90;;;;;;4937160;29;20883;-78
2022/03/16 06:30:11;;;;;;;36.97;27.00;;;3.50;99.90;;;;;;4937118;28;20868;-78
2022/03/16 06:32:39;;;;;;;34.67;26.43;;;3.50;99.90;;;;;;4937185;29;20486;-78
2022/03/16 06:35:08;;;;;;;37.83;28.20;;;3.50;99.90;;;;;;4937919;29;20577;-78
2022/03/16 06:37:36;;;;;;;38.67;26.60;;;3.50;99.90;;;;;;4938513;29;20585;-78
2022/03/16 06:40:05;;;;;;;40.67;28.07;;;3.60;99.90;;;;;;4936946;29;20490;-78
2022/03/16 06:42:35;;;;;;;42.10;29.37;;;3.60;99.90;;;;;;4937558;29;20988;-78
2022/03/16 06:45:03;;;;;;;37.03;27.43;;;3.70;99.90;;;;;;4936786;29;20479;-78
2022/03/16 06:47:32;;;;;;;34.23;27.63;;;3.80;99.90;;;;;;4937387;29;20458;-78
2022/03/16 06:50:00;;;;;;;36.17;29.03;;;3.80;99.90;;;;;;4938327;29;20977;-78
2022/03/16 06:52:28;;;;;;;36.07;29.90;;;3.90;99.90;;;;;;4936174;29;20455;-78
2022/03/16 06:54:56;;;;;;;38.40;27.57;;;4.00;99.90;;;;;;4936088;29;20838;-78
2022/03/16 06:57:24;;;;;;;41.07;32.53;;;4.00;99.90;;;;;;4936239;29;20451;-77
2022/03/16 07:00:04;;;;;;;40.20;32.60;;;4.10;99.90;;;;;;4937650;29;20832;-78
2022/03/16 07:02:33;;;;;;;41.00;33.70;;;4.10;99.90;;;;;;4935706;29;20462;-78
2022/03/16 07:05:01;;;;;;;38.90;31.67;;;4.20;99.90;;;;;;4936727;28;20463;-78
2022/03/16 07:07:29;;;;;;;41.30;31.93;;;4.20;99.90;;;;;;4936013;29;20455;-78
2022/03/16 07:09:57;;;;;;;40.80;32.87;;;4.30;99.90;;;;;;4937384;29;20446;-78
2022/03/16 07:12:29;;;;;;;40.30;32.10;;;4.30;99.90;;;;;;4935873;29;20455;-78
2022/03/16 07:14:58;;;;;;;36.90;31.50;;;4.40;99.90;;;;;;4935784;28;20476;-78
2022/03/16 07:17:28;;;;;;;40.00;33.70;;;4.50;99.90;;;;;;4935885;28;20458;-78
2022/03/16 07:19:56;;;;;;;43.03;33.50;;;4.50;99.90;;;;;;4935716;29;20479;-78
2022/03/16 07:22:24;;;;;;;37.37;30.53;;;4.60;99.90;;;;;;4935643;29;20538;-78
2022/03/16 07:25:12;;;;;;;39.30;32.90;;;4.70;99.90;;;;;;4936901;29;20514;-78
2022/03/16 07:27:41;;;;;;;38.83;31.73;;;4.80;99.90;;;;;;4935651;28;20973;-78
2022/03/16 07:30:11;;;;;;;41.90;33.37;;;4.80;99.90;;;;;;4935610;29;20489;-78
2022/03/16 07:32:40;;;;;;;47.20;40.17;;;4.90;99.90;;;;;;4935707;29;20558;-78
2022/03/16 07:35:10;;;;;;;40.70;32.83;;;4.90;99.90;;;;;;4935241;29;20491;-78
2022/03/16 07:37:39;;;;;;;40.47;35.10;;;5.00;99.90;;;;;;4935389;29;20453;-78
2022/03/16 07:40:08;;;;;;;49.63;42.00;;;5.10;99.90;;;;;;4936833;29;20506;-78
2022/03/16 07:42:36;;;;;;;42.43;33.93;;;5.20;99.90;;;;;;4936942;29;20543;-78
2022/03/16 07:45:05;;;;;;;39.33;33.13;;;5.20;99.90;;;;;;4936571;29;20972;-78
2022/03/16 07:47:33;;;;;;;37.10;31.87;;;5.30;99.90;;;;;;4935321;29;20458;-78
2022/03/16 07:50:09;;;;;;;37.97;32.80;;;5.40;99.90;;;;;;4937285;29;20435;-78
2022/03/16 07:52:37;;;;;;;36.67;32.50;;;5.40;99.90;;;;;;4935592;29;20456;-78
2022/03/16 07:55:07;;;;;;;37.23;32.80;;;5.50;99.90;;;;;;4936850;29;20499;-78
2022/03/16 07:57:36;;;;;;;36.57;32.67;;;5.60;99.90;;;;;;4935526;29;20456;-78
2022/03/16 08:00:05;;;;;;;42.20;37.00;;;5.70;99.90;;;;;;4935783;29;21012;-79
2022/03/16 08:02:34;;;;;;;38.57;34.10;;;5.80;99.90;;;;;;4935928;29;20528;-78
2022/03/16 08:05:02;;;;;;;37.50;33.57;;;5.90;99.90;;;;;;4937034;29;20558;-78
2022/03/16 08:07:31;;;;;;;41.80;36.47;;;6.00;99.90;;;;;;4935855;29;20463;-79
2022/03/16 08:10:00;;;;;;;40.90;35.17;;;6.00;99.90;;;;;;4935800;29;20487;-79
2022/03/16 08:12:29;;;;;;;43.23;38.03;;;6.10;99.90;;;;;;4937157;29;20495;-78
2022/03/16 08:14:58;;;;;;;40.63;36.20;;;6.20;99.90;;;;;;4935707;29;20476;-79
2022/03/16 08:17:26;;;;;;;38.70;34.60;;;6.30;99.90;;;;;;4937656;29;20444;-78
2022/03/16 08:19:54;;;;;;;37.67;33.60;;;6.40;99.90;;;;;;4935594;29;20473;-78
2022/03/16 08:22:26;;;;;;;39.93;34.90;;;6.50;99.90;;;;;;4936171;29;20502;-78
2022/03/16 08:24:57;;;;;;;41.00;36.67;;;6.60;99.90;;;;;;4935648;29;20540;-78
2022/03/16 08:27:26;;;;;;;43.23;37.50;;;6.60;99.90;;;;;;4935620;29;20448;-78
2022/03/16 08:29:55;;;;;;;40.27;35.87;;;6.70;99.90;;;;;;4935894;29;20549;-78
2022/03/16 08:32:24;;;;;;;42.60;36.03;;;6.80;99.90;;;;;;4935887;29;20458;-79
2022/03/16 08:34:53;;;;;;;38.47;34.37;;;6.90;99.90;;;;;;4936043;29;20917;-78
2022/03/16 08:37:21;;;;;;;46.43;37.47;;;7.00;99.90;;;;;;4936798;29;21009;-78
2022/03/16 08:39:50;;;;;;;40.70;36.50;;;7.00;99.90;;;;;;4936490;29;20453;-79
2022/03/16 08:42:20;;;;;;;55.37;45.83;;;7.10;99.90;;;;;;4936494;29;20458;-79
2022/03/16 08:44:48;;;;;;;44.00;38.43;;;7.20;99.90;;;;;;4936435;29;20476;-78
2022/03/16 08:47:19;;;;;;;41.33;35.90;;;7.30;99.90;;;;;;4936507;29;20458;-79
2022/03/16 08:49:50;;;;;;;40.83;35.10;;;7.40;99.90;;;;;;4936367;29;20447;-79
2022/03/16 08:52:18;;;;;;;39.90;35.97;;;7.50;99.90;;;;;;4936572;29;20439;-79
2022/03/16 08:54:46;;;;;;;38.47;34.27;;;7.60;99.90;;;;;;4937458;29;20561;-79
2022/03/16 08:57:15;;;;;;;37.83;33.90;;;7.70;99.90;;;;;;4936783;29;20454;-79
2022/03/16 08:59:45;;;;;;;39.47;35.27;;;7.80;99.90;;;;;;4936468;29;20557;-78
2022/03/16 09:02:13;;;;;;;38.67;34.63;;;7.90;99.90;;;;;;4936992;29;20470;-79
2022/03/16 09:04:42;;;;;;;39.97;35.37;;;7.90;99.90;;;;;;4936770;28;20483;-79
2022/03/16 09:07:10;;;;;;;38.67;34.50;;;8.10;99.90;;;;;;4938160;29;20530;-79
2022/03/16 09:09:40;;;;;;;50.43;35.30;;;8.20;99.90;;;;;;4938335;29;20460;-79
2022/03/16 09:12:10;;;;;;;38.27;34.20;;;8.30;99.90;;;;;;4937226;29;20455;-79
2022/03/16 09:14:39;;;;;;;41.27;33.80;;;8.40;99.90;;;;;;4938080;29;20467;-79
2022/03/16 09:17:10;;;;;;;41.10;36.60;;;8.40;99.90;;;;;;4938390;29;20448;-79
2022/03/16 09:19:39;;;;;;;38.20;34.33;;;8.50;99.90;;;;;;4937761;28;20498;-79
2022/03/16 09:22:07;;;;;;;38.07;33.87;;;8.60;99.90;;;;;;4937007;29;20554;-79
2022/03/16 09:24:36;;;;;;;39.77;33.57;;;8.70;99.90;;;;;;4937970;29;20473;-79
2022/03/16 09:27:06;;;;;;;36.10;32.43;;;8.80;99.90;;;;;;4939019;29;20479;-79
2022/03/16 09:29:34;;;;;;;37.10;32.73;;;8.80;99.90;;;;;;4941507;29;20800;-79
2022/03/16 09:32:10;;;;;;;35.70;31.80;;;8.90;99.90;;;;;;4940907;29;20569;-79
2022/03/16 09:34:40;;;;;;;36.40;32.40;;;9.00;99.90;;;;;;4941174;29;20479;-79
2022/03/16 09:37:09;;;;;;;36.50;32.60;;;9.10;99.90;;;;;;4940638;29;20542;-79
2022/03/16 09:39:38;;;;;;;35.10;31.13;;;9.20;99.90;;;;;;4940119;29;20953;-79
2022/03/16 09:42:08;;;;;;;32.07;28.63;;;9.40;99.90;;;;;;4941183;29;20471;-79
2022/03/16 09:44:37;;;;;;;39.37;34.87;;;9.50;99.90;;;;;;4941441;29;20455;-79
2022/03/16 09:47:10;;;;;;;37.30;31.57;;;9.60;99.90;;;;;;4940202;29;20464;-79
2022/03/16 09:49:41;;;;;;;31.73;28.33;;;9.80;99.90;;;;;;4939780;29;20451;-79
2022/03/16 09:52:10;;;;;;;35.50;31.80;;;9.90;99.90;;;;;;4940287;28;20440;-79
2022/03/16 09:54:38;;;;;;;32.60;28.13;;;10.00;99.90;;;;;;4939474;29;20474;-79
2022/03/16 09:57:06;;;;;;;29.27;26.03;;;10.00;99.90;;;;;;4941323;29;20510;-79
2022/03/16 09:59:35;;;;;;;30.27;25.37;;;10.10;99.90;;;;;;4940162;29;20439;-79
2022/03/16 10:02:07;;;;;;;33.57;25.90;;;10.20;99.90;;;;;;4940123;29;20483;-79
2022/03/16 10:04:36;;;;;;;29.50;26.27;;;10.30;99.90;;;;;;4939827;29;20475;-79
2022/03/16 10:07:06;;;;;;;28.93;25.10;;;10.30;99.90;;;;;;4941994;29;20509;-79
2022/03/16 10:15:12;;;;;;;29.93;26.33;;;10.60;99.90;;;;;;4941098;29;20475;-79
2022/03/16 10:17:46;;;;;;;29.63;24.33;;;10.60;99.90;;;;;;4941427;29;20473;-79
2022/03/16 10:20:30;;;;;;;28.60;25.57;;;10.70;99.90;;;;;;4941674;29;20428;-79
2022/03/16 10:23:02;;;;;;;28.43;24.10;;;10.80;99.90;;;;;;4940148;29;20926;-79
2022/03/16 10:25:33;;;;;;;28.27;25.30;;;10.90;99.90;;;;;;4940291;29;20506;-79
2022/03/16 10:28:11;;;;;;;31.07;25.50;;;10.90;99.90;;;;;;4941069;28;20535;-79
2022/03/16 10:30:41;;;;;;;54.47;27.23;;;11.00;99.90;;;;;;4940725;29;20453;-79
2022/03/16 10:33:14;;;;;;;30.73;26.10;;;11.10;99.90;;;;;;4941341;29;20451;-79
2022/03/16 10:35:55;;;;;;;27.93;23.93;;;11.10;99.90;;;;;;4941054;29;20495;-79
2022/03/16 10:38:26;;;;;;;30.30;25.03;;;11.20;99.90;;;;;;4941949;29;20451;-79
2022/03/16 10:41:11;;;;;;;27.47;23.40;;;11.20;99.90;;;;;;4943352;28;20968;-80
2022/03/16 10:46:39;;;;;;;33.97;26.50;;;11.30;99.90;;;;;;4943360;29;20479;-80
2022/03/16 10:49:09;;;;;;;32.37;25.90;;;11.30;99.90;;;;;;4942302;29;20442;-80
2022/03/16 10:51:38;;;;;;;28.70;24.13;;;11.40;99.90;;;;;;4942513;29;20480;-80
2022/03/16 10:54:26;;;;;;;27.30;24.50;;;11.40;99.90;;;;;;4942682;29;20446;-80
2022/03/16 10:56:55;;;;;;;26.70;23.20;;;11.50;99.90;;;;;;4943084;28;20455;-80
2022/03/16 10:59:29;;;;;;;24.10;21.70;;;11.50;99.90;;;;;;4943937;29;20470;-80
2022/03/16 11:02:05;;;;;;;25.73;23.10;;;11.60;99.90;;;;;;4944004;29;20459;-80
2022/03/16 11:04:36;;;;;;;27.53;23.43;;;11.70;99.90;;;;;;4944768;29;20478;-80
2022/03/16 11:07:06;;;;;;;26.17;21.90;;;11.80;99.90;;;;;;4943582;29;20460;-80
2022/03/16 11:09:37;;;;;;;29.20;22.80;;;11.80;99.90;;;;;;4942044;29;20440;-80
2022/03/16 11:15:01;;;;;;;25.00;20.50;;;12.00;99.90;;;;;;4943960;29;20868;-80
2022/03/16 11:17:32;;;;;;;25.10;22.07;;;12.10;99.90;;;;;;4942539;29;20813;-80
2022/03/16 11:20:03;;;;;;;24.80;21.83;;;12.10;99.90;;;;;;4942433;29;20515;-80
2022/03/16 11:22:37;;;;;;;21.60;19.43;;;12.20;99.90;;;;;;4944196;29;21064;-80
2022/03/16 11:25:12;;;;;;;25.40;20.63;;;12.20;99.90;;;;;;4941728;29;20474;-80
2022/03/16 11:27:46;;;;;;;26.27;21.33;;;12.30;99.90;;;;;;4943078;29;20967;-80
2022/03/16 11:30:25;;;;;;;24.47;20.77;;;12.30;99.90;;;;;;4943401;29;20447;-80
2022/03/16 11:32:57;;;;;;;23.97;21.10;;;12.30;99.90;;;;;;4945247;29;20499;-81
2022/03/16 11:35:31;;;;;;;24.60;20.10;;;12.40;99.90;;;;;;4943716;29;20479;-81
2022/03/16 11:38:02;;;;;;;21.80;19.33;;;12.40;99.90;;;;;;4944338;29;21029;-81
2022/03/16 11:40:31;;;;;;;24.20;19.30;;;12.50;99.90;;;;;;4945031;29;20451;-81
2022/03/16 11:43:20;;;;;;;20.90;18.70;;;12.50;99.90;;;;;;4945146;29;20482;-81
2022/03/16 11:45:54;;;;;;;19.80;17.63;;;12.60;99.90;;;;;;4945252;29;20996;-80
2022/03/16 11:48:38;;;;;;;21.67;18.70;;;12.60;99.90;;;;;;4944757;29;20502;-81
2022/03/16 11:51:23;;;;;;;20.80;17.77;;;12.60;99.90;;;;;;4945377;29;20929;-81
2022/03/16 11:54:08;;;;;;;21.43;18.00;;;12.70;99.90;;;;;;4942593;29;20538;-80
2022/03/16 11:56:46;;;;;;;19.53;17.63;;;12.70;99.90;;;;;;4943905;29;20459;-81
2022/03/16 11:59:35;;;;;;;20.80;18.53;;;12.80;99.90;;;;;;4944726;28;20455;-80
2022/03/16 12:02:18;;;;;;;19.90;17.87;;;12.80;99.90;;;;;;4944972;29;20467;-81
2022/03/16 12:04:48;;;;;;;19.77;17.60;;;12.80;99.90;;;;;;4944250;29;20499;-81
2022/03/16 12:07:19;;;;;;;20.67;18.47;;;12.80;99.90;;;;;;4943847;29;20463;-81
2022/03/16 12:09:50;;;;;;;18.73;16.70;;;12.90;99.90;;;;;;4944350;28;20451;-81
2022/03/16 12:15:17;;;;;;;21.57;18.20;;;12.90;99.90;;;;;;4939040;29;20480;-82
2022/03/16 12:18:21;;;;;;;20.47;17.60;;;12.90;99.90;;;;;;4946147;29;20534;-81
2022/03/16 12:20:53;;;;;;;19.87;17.70;;;13.00;99.90;;;;;;4946267;29;20453;-82
2022/03/16 12:23:44;;;;;;;21.33;19.10;;;13.00;99.90;;;;;;4946352;29;20468;-82
2022/03/16 12:26:13;;;;;;;20.73;16.40;;;13.10;99.90;;;;;;4946358;29;20487;-82
2022/03/16 12:28:59;;;;;;;21.73;17.57;;;13.10;99.90;;;;;;4945625;29;20542;-82
2022/03/16 12:31:28;;;;;;;17.37;15.37;;;13.10;99.90;;;;;;4946541;29;20440;-77
2022/03/16 12:33:58;;;;;;;18.87;16.87;;;13.10;99.90;;;;;;4946320;29;20479;-81
2022/03/16 12:36:27;;;;;;;19.03;16.97;;;13.20;99.90;;;;;;4945730;29;20530;-82
2022/03/16 12:39:01;;;;;;;18.70;16.70;;;13.20;99.90;;;;;;4946375;29;20471;-82
2022/03/16 12:44:19;;;;;;;18.80;16.90;;;13.20;99.90;;;;;;4945420;29;20447;-82
2022/03/16 12:46:54;;;;;;;20.83;16.40;;;13.30;99.90;;;;;;4945444;29;20452;-82
2022/03/16 12:49:23;;;;;;;18.60;16.60;;;13.30;99.90;;;;;;4946191;29;20454;-82
2022/03/16 12:51:53;;;;;;;19.00;17.00;;;13.30;99.90;;;;;;4945748;29;20455;-82
2022/03/16 12:54:29;;;;;;;19.00;16.70;;;13.30;99.90;;;;;;4945174;29;20456;-82
2022/03/16 12:57:02;;;;;;;17.07;15.40;;;13.30;99.90;;;;;;4945822;29;20516;-82
2022/03/16 12:59:34;;;;;;;19.37;15.40;;;13.30;99.90;;;;;;4945248;29;20463;-82
2022/03/16 13:02:05;;;;;;;20.33;16.93;;;13.40;99.90;;;;;;4947188;29;20602;-82
2022/03/16 13:04:33;;;;;;;20.30;17.13;;;13.30;99.90;;;;;;4951266;29;20474;-82
2022/03/16 13:07:02;;;;;;;17.20;15.40;;;13.40;99.90;;;;;;4949914;29;20447;-82